Time;durP1;ratioP1;P1;durP2;ratioP2;P2;SDS_P1;SDS_P2;PMS_P1;PMS_P2;Temp;Humidity;BMP_temperature;BMP_pressure;BME280_temperature;BME280_humidity;BME280_pressure;Samples;Min_cycle;Max_cycle;Signal;HPM_P1;HPM_P2
2022/12/11 00:01:20;;;;;;;56.97;17.80;;;-0.40;99.90;;;;;;5026886;28;20050;-79
2022/12/11 00:03:48;;;;;;;50.00;19.10;;;-0.40;99.90;;;;;;5030309;28;20081;-79
2022/12/11 00:06:17;;;;;;;51.28;18.60;;;-0.40;99.90;;;;;;4996632;28;20068;-79
2022/12/11 00:08:43;;;;;;;48.05;17.95;;;0.00;99.90;;;;;;5018464;28;20127;-78
2022/12/11 00:11:14;;;;;;;48.33;18.48;;;-0.40;99.90;;;;;;4998466;28;20041;-79
2022/12/11 00:13:40;;;;;;;53.20;19.60;;;-0.50;99.90;;;;;;5035790;28;20146;-78
2022/12/11 00:16:07;;;;;;;49.63;17.73;;;-0.40;99.90;;;;;;5030724;28;20037;-80
2022/12/11 00:18:33;;;;;;;45.92;17.38;;;-0.40;99.90;;;;;;5030208;28;20061;-79
2022/12/11 00:21:09;;;;;;;49.75;18.40;;;-1.60;99.90;;;;;;5018597;28;20085;-78
2022/12/11 00:23:35;;;;;;;53.88;18.85;;;-0.40;99.90;;;;;;5029965;28;20037;-79
2022/12/11 00:26:05;;;;;;;47.25;17.48;;;-0.40;99.90;;;;;;5020323;28;20044;-79
2022/12/11 00:28:31;;;;;;;58.45;19.27;;;-0.30;99.90;;;;;;5030385;28;20116;-79
2022/12/11 00:30:57;;;;;;;56.17;20.20;;;-0.40;99.90;;;;;;5029985;28;20061;-79
2022/12/11 00:33:25;;;;;;;55.80;19.95;;;-0.40;99.90;;;;;;5037351;28;20049;-79
2022/12/11 00:35:51;;;;;;;54.30;18.58;;;-0.30;99.90;;;;;;5032626;28;20521;-79
2022/12/11 00:38:20;;;;;;;51.78;18.15;;;-0.30;99.90;;;;;;5028002;28;20057;-79
2022/12/11 00:40:46;;;;;;;50.17;17.88;;;-0.30;99.90;;;;;;5014393;28;20084;-77
2022/12/11 00:43:11;;;;;;;58.80;20.13;;;1.00;99.90;;;;;;5035294;28;20087;-79
2022/12/11 00:45:42;;;;;;;52.10;18.95;;;-0.30;99.90;;;;;;5032168;28;20045;-79
2022/12/11 00:48:09;;;;;;;52.20;18.75;;;-0.30;99.90;;;;;;5016640;28;20037;-79
2022/12/11 00:50:35;;;;;;;53.60;18.88;;;-0.30;99.90;;;;;;5007948;28;20036;-78
2022/12/11 00:53:02;;;;;;;53.97;18.70;;;-0.30;99.90;;;;;;5037073;28;20376;-79
2022/12/11 00:55:28;;;;;;;51.50;19.33;;;-0.30;99.90;;;;;;5029778;28;20360;-79
2022/12/11 00:57:57;;;;;;;52.95;18.92;;;-0.30;99.90;;;;;;5029368;28;20534;-78
2022/12/11 01:00:23;;;;;;;51.58;17.83;;;-0.10;99.90;;;;;;5013219;28;20049;-79
2022/12/11 01:02:49;;;;;;;58.42;18.92;;;-0.30;99.90;;;;;;5013811;28;20049;-79
2022/12/11 01:05:15;;;;;;;53.72;18.08;;;-0.20;99.90;;;;;;5029166;28;20041;-79
2022/12/11 01:07:41;;;;;;;51.58;16.35;;;-0.20;99.90;;;;;;5028495;28;20395;-78
2022/12/11 01:10:24;;;;;;;46.70;17.77;;;-0.20;99.90;;;;;;5011750;28;20042;-79
2022/12/11 01:12:51;;;;;;;48.28;16.80;;;-0.20;99.90;;;;;;5031739;28;20064;-79
2022/12/11 01:15:19;;;;;;;51.78;16.13;;;-0.20;99.90;;;;;;5030264;28;20491;-77
2022/12/11 01:17:44;;;;;;;47.17;16.45;;;-0.20;99.90;;;;;;5028278;28;20115;-79
2022/12/11 01:20:11;;;;;;;46.05;15.95;;;-0.20;99.90;;;;;;5027233;28;20451;-79
2022/12/11 01:22:38;;;;;;;48.65;16.40;;;-0.10;99.90;;;;;;4999045;28;20040;-79
2022/12/11 01:25:08;;;;;;;42.28;15.80;;;-0.20;99.90;;;;;;5051495;28;20402;-79
2022/12/11 01:27:37;;;;;;;48.17;16.42;;;-0.20;99.90;;;;;;4999996;28;20075;-79
2022/12/11 01:30:13;;;;;;;46.65;16.85;;;-0.20;99.90;;;;;;5029843;28;20495;-78
2022/12/11 01:32:39;;;;;;;43.97;15.30;;;0.70;99.90;;;;;;5004448;28;20552;-78
2022/12/11 01:35:06;;;;;;;44.03;15.27;;;-0.10;99.90;;;;;;5048766;28;20049;-78
2022/12/11 01:37:32;;;;;;;44.03;15.02;;;-0.10;99.90;;;;;;5011730;28;20467;-79
2022/12/11 01:39:59;;;;;;;44.72;15.07;;;-0.10;99.90;;;;;;5033442;28;20037;-79
2022/12/11 01:42:27;;;;;;;46.13;15.63;;;-0.10;99.90;;;;;;5010687;28;20075;-79
2022/12/11 01:45:24;;;;;;;45.42;15.95;;;0.00;99.90;;;;;;5006835;28;20502;-78
2022/12/11 01:48:04;;;;;;;53.95;16.55;;;0.00;99.90;;;;;;5042961;28;20132;-78
2022/12/11 01:50:33;;;;;;;49.30;16.20;;;0.00;99.90;;;;;;5027989;28;20071;-79
2022/12/11 01:52:59;;;;;;;44.75;15.77;;;0.00;99.90;;;;;;5019928;28;20026;-78
2022/12/11 01:55:32;;;;;;;51.80;16.15;;;0.00;99.90;;;;;;5008111;28;20428;-79
2022/12/11 01:57:59;;;;;;;45.78;16.30;;;0.00;99.90;;;;;;5019000;28;20041;-78
2022/12/11 02:00:25;;;;;;;47.05;15.88;;;0.10;99.90;;;;;;5037114;28;20053;-79
2022/12/11 02:02:50;;;;;;;45.90;15.88;;;0.10;99.90;;;;;;5028604;28;20037;-78
2022/12/11 02:05:16;;;;;;;45.55;15.80;;;0.00;99.90;;;;;;5030358;28;20052;-80
2022/12/11 02:08:03;;;;;;;50.13;15.60;;;0.10;99.90;;;;;;5050284;28;20052;-79
2022/12/11 02:10:59;;;;;;;48.20;15.32;;;0.10;99.90;;;;;;5027732;28;20040;-79
2022/12/11 02:13:57;;;;;;;53.05;16.20;;;0.10;99.90;;;;;;5024770;28;20128;-78
2022/12/11 02:16:52;;;;;;;47.00;15.88;;;0.10;99.90;;;;;;5030575;28;20049;-80
2022/12/11 02:19:41;;;;;;;51.05;15.85;;;0.10;99.90;;;;;;5033993;28;20046;-77
2022/12/11 02:22:14;;;;;;;44.83;15.10;;;-0.30;99.90;;;;;;5013106;28;20160;-78
2022/12/11 02:24:46;;;;;;;46.58;14.02;;;0.20;99.90;;;;;;5027809;28;20045;-79
2022/12/11 02:27:34;;;;;;;47.20;15.18;;;0.20;99.90;;;;;;5027699;28;20056;-79
2022/12/11 02:30:03;;;;;;;51.95;16.38;;;0.20;99.90;;;;;;5028681;28;20157;-80
2022/12/11 02:32:41;;;;;;;46.75;15.38;;;0.20;99.90;;;;;;5049799;28;20041;-80
2022/12/11 02:35:19;;;;;;;49.53;15.82;;;0.20;99.90;;;;;;5016523;28;20045;-79
2022/12/11 02:37:47;;;;;;;53.75;15.98;;;0.20;99.90;;;;;;5021441;28;20137;-79
2022/12/11 02:40:17;;;;;;;48.63;15.73;;;0.30;99.90;;;;;;4990387;28;20045;-78
2022/12/11 02:42:45;;;;;;;49.85;16.83;;;0.30;99.90;;;;;;5026269;28;20128;-79
2022/12/11 02:45:12;;;;;;;47.08;15.75;;;0.30;99.90;;;;;;4992842;28;20087;-80
2022/12/11 02:47:39;;;;;;;49.90;15.27;;;0.30;99.90;;;;;;5007733;28;20068;-78
2022/12/11 02:50:18;;;;;;;47.30;16.95;;;0.90;99.90;;;;;;5028455;28;20041;-77
2022/12/11 02:52:45;;;;;;;48.05;15.57;;;0.20;99.90;;;;;;5031380;28;20041;-78
2022/12/11 02:55:13;;;;;;;51.58;16.98;;;0.30;99.90;;;;;;5028532;28;20352;-78
2022/12/11 02:57:46;;;;;;;53.53;17.40;;;-0.70;99.90;;;;;;5027219;28;20073;-79
2022/12/11 03:00:12;;;;;;;49.17;16.03;;;0.30;99.90;;;;;;5009621;28;20044;-78
2022/12/11 03:02:39;;;;;;;48.03;16.63;;;0.30;99.90;;;;;;5025165;28;20054;-78
2022/12/11 03:05:05;;;;;;;49.42;15.50;;;0.30;99.90;;;;;;5032337;28;20080;-78
2022/12/11 03:07:35;;;;;;;43.15;15.70;;;0.30;99.90;;;;;;5047862;28;20045;-77
2022/12/11 03:10:01;;;;;;;52.53;17.55;;;0.30;99.90;;;;;;5025768;28;20037;-80
2022/12/11 03:12:30;;;;;;;45.60;15.40;;;0.40;99.90;;;;;;5013982;28;20048;-77
2022/12/11 03:14:59;;;;;;;50.20;17.17;;;0.40;99.90;;;;;;5025967;28;20124;-79
2022/12/11 03:17:43;;;;;;;50.85;16.23;;;0.80;99.90;;;;;;5027601;28;20064;-79
2022/12/11 03:20:32;;;;;;;44.15;14.45;;;0.40;99.90;;;;;;5026919;28;20041;-80
2022/12/11 03:23:23;;;;;;;51.00;15.63;;;0.40;99.90;;;;;;5015850;28;20099;-79
2022/12/11 03:26:03;;;;;;;48.95;15.45;;;0.40;99.90;;;;;;5031784;28;20077;-79
2022/12/11 03:28:47;;;;;;;56.58;16.90;;;0.50;99.90;;;;;;5051032;28;20516;-79
2022/12/11 03:31:21;;;;;;;49.95;15.55;;;1.40;99.90;;;;;;5031682;28;20041;-79
2022/12/11 03:33:50;;;;;;;48.03;15.75;;;0.70;99.90;;;;;;5030981;28;20049;-79
2022/12/11 03:36:25;;;;;;;47.85;15.80;;;0.40;99.90;;;;;;5029654;28;20080;-79
2022/12/11 03:39:01;;;;;;;47.22;15.80;;;1.00;99.90;;;;;;5025257;28;20048;-79
2022/12/11 03:41:30;;;;;;;51.08;15.25;;;1.60;99.90;;;;;;5035139;28;20519;-79
2022/12/11 03:43:57;;;;;;;48.30;14.68;;;0.40;99.90;;;;;;5030041;28;20095;-78
2022/12/11 03:46:29;;;;;;;51.47;18.00;;;0.40;99.90;;;;;;5015805;28;20116;-79
2022/12/11 03:49:04;;;;;;;49.22;16.33;;;0.40;99.90;;;;;;5031763;28;20534;-79
2022/12/11 03:51:34;;;;;;;49.00;15.38;;;1.30;99.90;;;;;;5013789;28;20221;-79
2022/12/11 03:54:00;;;;;;;41.78;14.45;;;0.40;99.90;;;;;;5014802;28;20333;-79
2022/12/11 03:56:33;;;;;;;49.92;16.50;;;0.40;99.90;;;;;;5011591;28;20037;-79
2022/12/11 03:59:10;;;;;;;54.78;16.83;;;0.40;99.90;;;;;;5026982;28;20038;-79
2022/12/11 04:01:38;;;;;;;47.38;15.48;;;0.40;99.90;;;;;;5011658;28;20040;-79
2022/12/11 04:04:07;;;;;;;47.00;14.98;;;0.50;99.90;;;;;;5013258;28;20029;-79
2022/12/11 04:06:33;;;;;;;51.42;16.20;;;2.10;99.90;;;;;;5043294;28;20085;-79
2022/12/11 04:08:58;;;;;;;54.10;17.42;;;1.40;99.90;;;;;;5035473;28;20049;-79
2022/12/11 04:11:33;;;;;;;46.80;16.05;;;0.50;99.90;;;;;;5011697;28;20045;-79
2022/12/11 04:16:48;;;;;;;56.30;17.60;;;0.50;99.90;;;;;;5028401;28;20041;-79
2022/12/11 04:24:43;;;;;;;54.45;16.88;;;0.90;99.90;;;;;;5029006;28;20330;-79
2022/12/11 04:27:08;;;;;;;48.63;15.38;;;0.60;99.90;;;;;;5017544;28;20248;-79
2022/12/11 04:29:34;;;;;;;48.10;15.50;;;0.50;99.90;;;;;;5010579;28;20407;-79
2022/12/11 04:32:00;;;;;;;55.63;17.08;;;0.50;99.90;;;;;;5026934;28;20037;-79
2022/12/11 04:34:26;;;;;;;49.13;16.25;;;0.50;99.90;;;;;;5013915;28;20442;-79
2022/12/11 04:36:51;;;;;;;48.55;16.55;;;0.50;99.90;;;;;;5011293;28;20526;-79
2022/12/11 04:39:17;;;;;;;43.22;15.27;;;0.50;99.90;;;;;;5008817;28;20110;-79
2022/12/11 04:41:43;;;;;;;41.22;14.93;;;0.60;99.90;;;;;;5009449;28;20045;-79
2022/12/11 04:44:09;;;;;;;47.42;15.52;;;0.70;99.90;;;;;;5021751;28;20137;-79
2022/12/11 04:46:37;;;;;;;46.33;15.27;;;0.80;99.90;;;;;;5006299;28;20121;-79
2022/12/11 04:49:03;;;;;;;46.03;15.73;;;0.50;99.90;;;;;;5001826;28;20041;-78
2022/12/11 04:51:31;;;;;;;46.55;15.48;;;0.60;99.90;;;;;;5016824;28;20040;-79
2022/12/11 04:54:00;;;;;;;40.92;14.27;;;0.60;99.90;;;;;;5035642;28;20403;-79
2022/12/11 04:56:26;;;;;;;42.97;14.75;;;2.40;99.90;;;;;;5027699;28;20033;-79
2022/12/11 04:58:52;;;;;;;41.85;15.60;;;1.10;99.90;;;;;;5016134;28;20484;-79
2022/12/11 05:01:21;;;;;;;42.05;15.57;;;0.60;99.90;;;;;;5030974;28;20120;-78
2022/12/11 05:03:48;;;;;;;47.65;15.45;;;0.60;99.90;;;;;;5042374;28;20037;-79
2022/12/11 05:06:14;;;;;;;41.08;14.75;;;0.60;99.90;;;;;;5041827;28;20708;-79
2022/12/11 05:08:41;;;;;;;45.35;14.88;;;0.60;99.90;;;;;;5029565;28;20048;-79
2022/12/11 05:11:09;;;;;;;47.80;15.73;;;0.60;99.90;;;;;;5031136;28;20045;-79
2022/12/11 05:13:35;;;;;;;48.67;15.98;;;0.60;99.90;;;;;;5030239;28;20050;-80
2022/12/11 05:16:07;;;;;;;51.92;16.67;;;1.00;99.90;;;;;;5012579;28;20056;-79
2022/12/11 05:18:33;;;;;;;44.78;15.63;;;0.60;99.90;;;;;;5011333;28;20061;-79
2022/12/11 05:21:02;;;;;;;44.42;15.07;;;0.60;99.90;;;;;;5020008;28;20392;-79
2022/12/11 05:23:29;;;;;;;45.42;16.13;;;0.70;99.90;;;;;;5030081;28;20376;-79
2022/12/11 05:25:56;;;;;;;42.53;15.30;;;0.70;99.90;;;;;;5003723;28;20044;-78
2022/12/11 05:28:26;;;;;;;45.28;15.38;;;0.70;99.90;;;;;;5016763;28;20041;-79
2022/12/11 05:31:01;;;;;;;45.67;15.30;;;2.20;99.90;;;;;;5015793;28;20263;-78
2022/12/11 05:33:27;;;;;;;46.38;15.88;;;1.50;99.90;;;;;;5017172;28;20074;-79
2022/12/11 05:35:53;;;;;;;45.20;16.58;;;0.70;99.90;;;;;;5041698;28;20052;-79
2022/12/11 05:38:19;;;;;;;48.00;16.50;;;0.70;99.90;;;;;;5007239;28;20048;-78
2022/12/11 05:41:02;;;;;;;46.00;15.27;;;0.70;99.90;;;;;;5026741;28;20135;-78
2022/12/11 05:43:30;;;;;;;55.97;16.48;;;0.50;99.90;;;;;;5030291;28;20045;-79
2022/12/11 05:46:26;;;;;;;49.08;16.92;;;0.70;99.90;;;;;;5017473;28;20105;-77
2022/12/11 05:48:55;;;;;;;48.70;16.55;;;0.70;99.90;;;;;;5028510;28;20033;-78
2022/12/11 05:51:21;;;;;;;54.08;16.77;;;0.70;99.90;;;;;;5026584;28;20104;-79
2022/12/11 05:53:48;;;;;;;49.72;16.42;;;0.70;99.90;;;;;;5014308;28;20041;-79
2022/12/11 05:56:17;;;;;;;54.95;17.15;;;0.70;99.90;;;;;;5009389;28;20119;-78
2022/12/11 05:58:44;;;;;;;43.30;15.73;;;0.10;99.90;;;;;;5008412;28;20119;-81
2022/12/11 06:01:13;;;;;;;50.28;15.57;;;0.70;99.90;;;;;;5011479;28;20131;-79
2022/12/11 06:03:39;;;;;;;46.80;16.13;;;0.70;99.90;;;;;;5027571;28;20128;-79
2022/12/11 06:06:11;;;;;;;43.83;14.65;;;0.70;99.90;;;;;;5008562;28;20451;-79
2022/12/11 06:08:37;;;;;;;48.83;15.48;;;0.70;99.90;;;;;;5026654;28;20034;-79
2022/12/11 06:11:04;;;;;;;44.88;14.88;;;;;;;;;;5006761;28;20449;-79
2022/12/11 06:13:30;;;;;;;48.47;15.32;;;0.70;99.90;;;;;;5029233;28;20033;-80
2022/12/11 06:16:03;;;;;;;48.92;16.00;;;0.70;99.90;;;;;;5037287;28;20486;-79
2022/12/11 06:18:29;;;;;;;42.55;13.98;;;0.70;99.90;;;;;;5025059;28;20516;-79
2022/12/11 06:20:55;;;;;;;45.83;16.23;;;0.70;99.90;;;;;;5027095;28;20077;-80
2022/12/11 06:23:24;;;;;;;49.05;15.02;;;0.70;99.90;;;;;;5030319;28;20080;-77
2022/12/11 06:25:52;;;;;;;47.90;16.92;;;0.70;99.90;;;;;;5048985;28;20084;-79
2022/12/11 06:28:18;;;;;;;48.88;16.27;;;-1.30;99.90;;;;;;5034516;28;20041;-80
2022/12/11 06:30:44;;;;;;;46.17;16.40;;;1.00;99.90;;;;;;5025320;28;20083;-80
2022/12/11 06:33:09;;;;;;;51.55;17.25;;;0.70;99.90;;;;;;5012959;28;20120;-79
2022/12/11 06:35:38;;;;;;;45.70;15.32;;;0.70;99.90;;;;;;5029430;28;20050;-80
2022/12/11 06:38:06;;;;;;;46.60;16.83;;;0.70;99.90;;;;;;5008995;28;20042;-79
2022/12/11 06:40:31;;;;;;;47.95;16.50;;;0.70;99.90;;;;;;5029287;28;20049;-80
2022/12/11 06:42:57;;;;;;;46.65;16.10;;;0.70;99.90;;;;;;5029752;28;20411;-79
2022/12/11 06:45:23;;;;;;;38.95;14.50;;;1.70;99.90;;;;;;5027407;28;20056;-79
2022/12/11 06:47:49;;;;;;;47.35;16.73;;;0.80;99.90;;;;;;5027089;28;20041;-79
2022/12/11 06:50:14;;;;;;;46.00;15.50;;;0.80;99.90;;;;;;5032483;28;20040;-78
2022/12/11 06:52:40;;;;;;;50.10;16.88;;;0.80;99.90;;;;;;5009174;28;20044;-79
2022/12/11 06:55:06;;;;;;;44.80;15.57;;;0.80;99.90;;;;;;5031915;28;20041;-79
2022/12/11 06:57:33;;;;;;;43.88;15.88;;;0.80;99.90;;;;;;5049319;28;20048;-80
2022/12/11 06:59:59;;;;;;;44.03;15.52;;;0.80;99.90;;;;;;5031413;28;20077;-79
2022/12/11 07:02:29;;;;;;;44.08;15.63;;;0.80;99.90;;;;;;5008258;28;20495;-79
2022/12/11 07:04:55;;;;;;;51.03;17.70;;;1.50;99.90;;;;;;5014408;28;20191;-80
2022/12/11 07:07:23;;;;;;;44.72;15.38;;;0.70;99.90;;;;;;5005990;28;20245;-80
2022/12/11 07:09:49;;;;;;;46.20;15.65;;;;;;;;;;5026088;28;20045;-80
2022/12/11 07:12:16;;;;;;;49.03;16.25;;;0.80;99.90;;;;;;5025515;28;20482;-80
2022/12/11 07:14:42;;;;;;;41.90;15.40;;;0.80;99.90;;;;;;5010959;28;20053;-80
2022/12/11 07:17:07;;;;;;;41.72;15.82;;;0.80;99.90;;;;;;5039292;28;20082;-78
2022/12/11 07:19:33;;;;;;;51.22;17.25;;;0.80;99.90;;;;;;5019916;28;20068;-79
2022/12/11 07:21:59;;;;;;;44.42;16.38;;;;;;;;;;4978058;28;20045;-79
2022/12/11 07:24:25;;;;;;;45.63;16.92;;;0.80;99.90;;;;;;4992508;28;20066;-80
2022/12/11 07:26:51;;;;;;;46.33;15.70;;;0.80;99.90;;;;;;5011457;28;20503;-79
2022/12/11 07:29:18;;;;;;;39.80;14.10;;;0.70;99.90;;;;;;5011994;28;20052;-79
2022/12/11 07:31:43;;;;;;;42.13;14.32;;;0.80;99.90;;;;;;5025506;28;20033;-79
2022/12/11 07:34:13;;;;;;;43.55;14.95;;;0.80;99.90;;;;;;5008312;28;20069;-80
2022/12/11 07:36:39;;;;;;;44.53;14.82;;;2.10;99.90;;;;;;5026772;28;20038;-79
2022/12/11 07:39:04;;;;;;;35.58;13.27;;;2.10;99.90;;;;;;5029217;28;20044;-79
2022/12/11 07:41:30;;;;;;;42.63;14.45;;;0.80;99.90;;;;;;5010281;28;20038;-80
2022/12/11 07:44:00;;;;;;;44.28;14.85;;;0.80;99.90;;;;;;5028510;28;20045;-80
2022/12/11 07:46:28;;;;;;;42.28;14.68;;;1.00;99.90;;;;;;5025914;28;20108;-78
2022/12/11 07:48:58;;;;;;;43.50;15.05;;;0.80;99.90;;;;;;5039866;28;20043;-80
2022/12/11 07:51:27;;;;;;;44.28;14.60;;;0.80;99.90;;;;;;5028484;28;20041;-79
2022/12/11 07:53:56;;;;;;;40.28;14.00;;;0.80;99.90;;;;;;5024864;28;20041;-81
2022/12/11 07:56:22;;;;;;;35.40;13.55;;;0.80;99.90;;;;;;5027873;28;20033;-79
2022/12/11 07:58:48;;;;;;;49.38;15.23;;;1.30;99.90;;;;;;5022887;28;20516;-79
2022/12/11 08:01:16;;;;;;;39.97;14.65;;;0.80;99.90;;;;;;5015139;28;20050;-80
2022/12/11 08:03:43;;;;;;;41.53;14.70;;;0.80;99.90;;;;;;5009351;28;20079;-78
2022/12/11 08:06:09;;;;;;;45.25;15.13;;;0.80;99.90;;;;;;5026474;28;20403;-78
2022/12/11 08:08:35;;;;;;;42.83;15.40;;;1.90;99.90;;;;;;5010749;28;20447;-80
2022/12/11 08:11:02;;;;;;;45.28;14.82;;;1.40;99.90;;;;;;5033927;28;20640;-78
2022/12/11 08:13:28;;;;;;;48.20;15.27;;;0.80;99.90;;;;;;5030748;28;20107;-79
2022/12/11 08:15:54;;;;;;;39.97;14.80;;;0.80;99.90;;;;;;5027444;28;20498;-78
2022/12/11 08:18:20;;;;;;;48.10;13.95;;;0.80;99.90;;;;;;5015988;28;20060;-79
2022/12/11 08:20:45;;;;;;;42.47;15.40;;;0.80;99.90;;;;;;5018768;28;20211;-78
2022/12/11 08:23:11;;;;;;;42.03;14.32;;;0.80;99.90;;;;;;5010144;28;20483;-79
2022/12/11 08:25:37;;;;;;;49.00;16.23;;;0.80;99.90;;;;;;4997428;28;20046;-79
2022/12/11 08:28:05;;;;;;;41.55;15.65;;;0.80;99.90;;;;;;5027509;28;20045;-80
2022/12/11 08:30:34;;;;;;;40.33;14.77;;;0.80;99.90;;;;;;4998691;28;20041;-80
2022/12/11 08:33:03;;;;;;;47.10;15.00;;;0.90;99.90;;;;;;4998182;28;20050;-78
2022/12/11 08:35:31;;;;;;;45.95;15.65;;;0.80;99.90;;;;;;5014376;28;20103;-79
2022/12/11 08:37:59;;;;;;;37.75;13.85;;;0.80;99.90;;;;;;5015815;28;20037;-80
2022/12/11 08:40:28;;;;;;;39.88;15.30;;;0.80;99.90;;;;;;5029300;28;20049;-79
2022/12/11 08:42:53;;;;;;;41.30;14.52;;;2.20;99.90;;;;;;5013090;28;20080;-80
2022/12/11 08:45:19;;;;;;;38.72;13.85;;;1.80;99.90;;;;;;5025480;28;20069;-80
2022/12/11 08:47:45;;;;;;;43.97;15.60;;;0.80;99.90;;;;;;5022423;28;20040;-79
2022/12/11 08:50:11;;;;;;;39.20;14.35;;;0.80;99.90;;;;;;5009956;28;20124;-80
2022/12/11 08:52:36;;;;;;;44.35;15.85;;;0.80;99.90;;;;;;5027256;28;20456;-79
2022/12/11 08:55:06;;;;;;;45.03;14.95;;;0.90;99.90;;;;;;5025330;28;20045;-79
2022/12/11 08:57:34;;;;;;;43.28;16.10;;;0.80;99.90;;;;;;5017585;28;20059;-80
2022/12/11 09:00:11;;;;;;;39.22;14.25;;;0.80;99.90;;;;;;5018639;28;20248;-79
2022/12/11 09:02:37;;;;;;;45.65;15.98;;;0.80;99.90;;;;;;5016746;28;20458;-79
2022/12/11 09:05:06;;;;;;;45.15;15.20;;;0.80;99.90;;;;;;5038928;28;20502;-79
2022/12/11 09:07:35;;;;;;;42.65;14.75;;;0.90;99.90;;;;;;5029500;28;20510;-80
2022/12/11 09:10:08;;;;;;;40.47;15.30;;;0.80;99.90;;;;;;5024748;28;20405;-80
2022/12/11 09:12:41;;;;;;;44.15;15.10;;;0.80;99.90;;;;;;5035384;28;20045;-81
2022/12/11 09:15:15;;;;;;;39.47;14.55;;;0.80;99.90;;;;;;5010992;28;20120;-79
2022/12/11 09:17:40;;;;;;;40.10;14.52;;;0.80;99.90;;;;;;5026201;28;20049;-79
2022/12/11 09:20:07;;;;;;;43.03;14.35;;;0.80;99.90;;;;;;5004214;28;20121;-81
2022/12/11 09:22:33;;;;;;;45.65;15.98;;;0.80;99.90;;;;;;5018744;28;20041;-80
2022/12/11 09:24:59;;;;;;;42.10;15.63;;;0.80;99.90;;;;;;5036904;28;20060;-80
2022/12/11 09:27:25;;;;;;;42.65;14.82;;;;;;;;;;5027003;28;20123;-81
2022/12/11 09:29:51;;;;;;;43.00;14.82;;;0.80;99.90;;;;;;5024874;28;20487;-79
2022/12/11 09:32:19;;;;;;;41.40;14.27;;;0.80;99.90;;;;;;5028749;28;20091;-80
2022/12/11 09:34:45;;;;;;;48.00;16.20;;;0.80;99.90;;;;;;5011805;28;20137;-82
2022/12/11 09:37:17;;;;;;;42.95;15.32;;;0.90;99.90;;;;;;5027206;28;20470;-80
2022/12/11 09:39:43;;;;;;;44.65;16.15;;;;;;;;;;5013374;28;20110;-79
2022/12/11 09:42:22;;;;;;;;;;;;;;;;;;;;;
2022/12/11 09:45:02;;;;;;;44.65;15.40;;;0.90;99.90;;;;;;5025150;28;20049;-81
2022/12/11 09:47:40;;;;;;;48.33;16.50;;;1.90;99.90;;;;;;5026106;28;20403;-81
2022/12/11 09:50:09;;;;;;;37.63;15.30;;;0.90;99.90;;;;;;5025452;28;20667;-79
2022/12/11 09:52:57;;;;;;;45.78;16.38;;;0.90;99.90;;;;;;5021926;28;20120;-79
2022/12/11 09:55:24;;;;;;;46.03;16.42;;;1.00;99.90;;;;;;5019386;28;20474;-79
2022/12/11 09:57:50;;;;;;;46.15;16.23;;;0.30;99.90;;;;;;5019675;28;21823;-80
2022/12/11 10:00:43;;;;;;;50.47;15.50;;;1.00;99.90;;;;;;5021019;28;20037;-80
2022/12/11 10:03:32;;;;;;;45.05;16.65;;;1.00;99.90;;;;;;5027576;28;20041;-79
2022/12/11 10:06:14;;;;;;;46.97;16.60;;;1.00;99.90;;;;;;5016827;28;20530;-79
2022/12/11 10:09:01;;;;;;;45.88;15.68;;;1.00;99.90;;;;;;4999076;28;20062;-81
2022/12/11 10:11:34;;;;;;;49.65;16.23;;;;;;;;;;5020628;28;20049;-80
2022/12/11 10:14:17;;;;;;;43.95;16.05;;;1.00;99.90;;;;;;5019680;28;20049;-80
2022/12/11 10:16:47;;;;;;;40.80;15.70;;;1.00;99.90;;;;;;5019996;28;20049;-81
2022/12/11 10:19:28;;;;;;;47.40;16.70;;;1.90;99.90;;;;;;5020541;28;20041;-79
2022/12/11 10:21:58;;;;;;;45.38;15.98;;;1.00;99.90;;;;;;5007298;28;20503;-79
2022/12/11 10:24:37;;;;;;;48.67;17.13;;;1.00;99.90;;;;;;5001745;28;20065;-80
2022/12/11 10:27:23;;;;;;;48.83;17.60;;;1.10;99.90;;;;;;5011119;28;20076;-79
2022/12/11 10:30:00;;;;;;;51.83;16.00;;;1.00;99.90;;;;;;5009786;28;20052;-80
2022/12/11 10:32:52;;;;;;;45.42;17.17;;;2.00;99.90;;;;;;5021706;28;20107;-80
2022/12/11 10:35:35;;;;;;;48.20;17.77;;;1.80;99.90;;;;;;5016672;28;20042;-80
2022/12/11 10:38:20;;;;;;;45.75;16.83;;;1.10;99.90;;;;;;5010701;28;20049;-80
2022/12/11 10:40:51;;;;;;;46.05;17.35;;;1.20;99.90;;;;;;5027952;28;20099;-81
2022/12/11 10:43:38;;;;;;;46.17;18.50;;;1.10;99.90;;;;;;5024690;28;20041;-81
2022/12/11 10:46:06;;;;;;;48.33;17.25;;;1.40;99.90;;;;;;5027560;28;20527;-79
2022/12/11 10:48:32;;;;;;;48.58;18.02;;;2.30;99.90;;;;;;5026356;28;20069;-79
2022/12/11 10:51:06;;;;;;;46.97;16.90;;;1.20;99.90;;;;;;5023605;28;20069;-80
2022/12/11 10:53:33;;;;;;;44.20;16.38;;;1.20;99.90;;;;;;5009067;28;20465;-80
2022/12/11 10:56:00;;;;;;;49.10;18.17;;;;;;;;;;5025562;28;20123;-81
2022/12/11 10:58:32;;;;;;;43.63;17.63;;;1.20;99.90;;;;;;5009517;28;20049;-80
2022/12/11 11:01:09;;;;;;;51.13;18.35;;;1.40;99.90;;;;;;4993931;28;20433;-80
2022/12/11 11:03:52;;;;;;;43.25;16.23;;;1.30;99.90;;;;;;5010958;28;20120;-80
2022/12/11 11:06:19;;;;;;;;;;;1.30;99.90;;;;;;5024718;28;20131;-81
2022/12/11 11:08:51;;;;;;;49.88;17.10;;;1.30;99.90;;;;;;5021291;28;19964;-80
2022/12/11 11:11:37;;;;;;;46.58;16.92;;;1.20;99.90;;;;;;5017780;28;20064;-80
2022/12/11 11:14:12;;;;;;;47.85;16.52;;;1.30;99.90;;;;;;5026205;28;20449;-81
2022/12/11 11:16:48;;;;;;;44.80;17.73;;;0.90;99.90;;;;;;5015708;28;20062;-79
2022/12/11 11:19:24;;;;;;;45.83;16.83;;;1.30;99.90;;;;;;5045998;28;20142;-80
2022/12/11 11:21:52;;;;;;;;;;;1.30;99.90;;;;;;5024222;28;20434;-80
2022/12/11 11:24:57;;;;;;;43.85;15.73;;;1.30;99.90;;;;;;5027423;28;19940;-79
2022/12/11 11:27:39;;;;;;;42.88;16.75;;;2.40;99.90;;;;;;5022223;28;20107;-79
2022/12/11 11:30:17;;;;;;;45.40;17.77;;;;;;;;;;5048288;28;20048;-80
2022/12/11 11:32:49;;;;;;;43.17;16.48;;;1.30;99.90;;;;;;5028350;28;20049;-80
2022/12/11 11:35:24;;;;;;;46.90;18.33;;;1.20;99.90;;;;;;5049822;28;20510;-80
2022/12/11 11:37:59;;;;;;;;;;;1.30;99.90;;;;;;5011181;28;20597;-79
2022/12/11 11:40:36;;;;;;;56.08;19.45;;;;;;;;;;5011553;28;19924;-80
2022/12/11 11:43:33;;;;;;;50.03;18.02;;;1.30;99.90;;;;;;5010752;28;20100;-80
2022/12/11 11:46:13;;;;;;;47.15;18.20;;;1.30;99.90;;;;;;5033386;28;20076;-80
2022/12/11 11:48:49;;;;;;;40.08;16.92;;;1.30;99.90;;;;;;5032213;28;20407;-80
2022/12/11 11:51:28;;;;;;;48.65;18.23;;;1.30;99.90;;;;;;5010969;28;20060;-80
2022/12/11 11:54:00;;;;;;;45.13;17.98;;;1.30;99.90;;;;;;5032067;28;20125;-79
2022/12/11 11:56:36;;;;;;;47.55;17.45;;;1.30;99.90;;;;;;5030594;28;20384;-81
2022/12/11 11:59:10;;;;;;;47.30;17.85;;;1.40;99.90;;;;;;5014804;28;20052;-81
2022/12/11 12:01:42;;;;;;;48.67;18.20;;;1.40;99.90;;;;;;5023631;28;20568;-79
2022/12/11 12:04:14;;;;;;;45.75;17.33;;;1.20;99.90;;;;;;5017498;28;20097;-80
2022/12/11 12:06:58;;;;;;;45.70;18.08;;;2.50;99.90;;;;;;5020848;28;20150;-80
2022/12/11 12:09:31;;;;;;;48.25;17.23;;;1.40;99.90;;;;;;5027513;28;20408;-80
2022/12/11 12:12:08;;;;;;;41.85;16.52;;;1.40;99.90;;;;;;5013141;28;20099;-81
2022/12/11 12:15:12;;;;;;;42.88;17.13;;;1.40;99.90;;;;;;5038716;28;20083;-81
2022/12/11 12:18:20;;;;;;;40.63;15.95;;;1.30;99.90;;;;;;5028464;28;20049;-80
2022/12/11 12:21:14;;;;;;;45.45;17.45;;;2.50;99.90;;;;;;4999768;28;20542;-82
2022/12/11 12:24:17;;;;;;;42.35;16.88;;;1.40;99.90;;;;;;5028107;28;20056;-77
2022/12/11 12:27:25;;;;;;;40.97;16.23;;;1.50;99.90;;;;;;5028241;28;20049;-78
2022/12/11 12:30:15;;;;;;;44.63;17.05;;;1.60;99.90;;;;;;4999519;28;20514;-78
2022/12/11 12:33:09;;;;;;;44.00;17.27;;;1.50;99.90;;;;;;5022478;28;21161;-78
2022/12/11 12:36:23;;;;;;;42.88;16.58;;;1.50;99.90;;;;;;5021400;28;20110;-77
2022/12/11 12:38:57;;;;;;;45.83;17.52;;;1.20;99.90;;;;;;5000967;28;20049;-77
2022/12/11 12:41:45;;;;;;;42.67;17.00;;;1.50;99.90;;;;;;5017067;28;20040;-77
2022/12/11 12:44:26;;;;;;;41.42;16.67;;;1.50;99.90;;;;;;5023019;28;20577;-77
2022/12/11 12:46:57;;;;;;;49.00;17.70;;;1.50;99.90;;;;;;5022686;28;20065;-77
2022/12/11 12:49:35;;;;;;;42.63;16.60;;;2.20;99.90;;;;;;5018301;28;20557;-77
2022/12/11 12:52:02;;;;;;;45.63;17.48;;;1.50;99.90;;;;;;5016554;28;20037;-77
2022/12/11 12:54:31;;;;;;;43.55;17.27;;;2.90;99.90;;;;;;5023929;28;20116;-77
2022/12/11 12:56:58;;;;;;;45.30;16.85;;;1.60;99.90;;;;;;5023162;28;20052;-77
2022/12/11 12:59:26;;;;;;;51.45;18.85;;;1.50;99.90;;;;;;5024616;28;20049;-77
2022/12/11 13:01:58;;;;;;;44.85;18.38;;;1.60;99.90;;;;;;5009977;28;20112;-77
2022/12/11 13:04:40;;;;;;;38.22;16.52;;;2.50;99.90;;;;;;5023609;28;20486;-76
2022/12/11 13:07:17;;;;;;;41.65;17.33;;;2.40;99.90;;;;;;5022512;28;20087;-76
2022/12/11 13:09:53;;;;;;;43.38;17.35;;;1.60;99.90;;;;;;5018270;28;20107;-77
2022/12/11 13:12:47;;;;;;;45.50;17.17;;;1.60;99.90;;;;;;5022586;28;20525;-76